Time;durP1;ratioP1;P1;durP2;ratioP2;P2;SDS_P1;SDS_P2;PMS_P1;PMS_P2;Temp;Humidity;BMP_temperature;BMP_pressure;BME280_temperature;BME280_humidity;BME280_pressure;Samples;Min_cycle;Max_cycle;Signal;HPM_P1;HPM_P2
2022/07/10 00:00:28;;;;;;;11.80;2.55;;;13.60;99.90;;;;;;5052369;28;20388;-63
2022/07/10 00:02:54;;;;;;;11.10;2.50;;;13.80;99.90;;;;;;5051958;28;20048;-63
2022/07/10 00:05:21;;;;;;;8.93;2.25;;;13.30;99.90;;;;;;5051849;28;20049;-63
2022/07/10 00:07:47;;;;;;;12.63;2.40;;;13.60;99.90;;;;;;5033772;28;20117;-64
2022/07/10 00:10:13;;;;;;;10.38;2.60;;;13.30;99.90;;;;;;5051419;28;20056;-64
2022/07/10 00:12:39;;;;;;;10.00;2.50;;;;;;;;;;5033833;28;20048;-64
2022/07/10 00:15:06;;;;;;;12.98;2.72;;;12.80;99.90;;;;;;5051578;28;20041;-63
2022/07/10 00:17:32;;;;;;;11.68;2.58;;;13.20;99.90;;;;;;5051676;28;20079;-63
2022/07/10 00:19:58;;;;;;;11.40;2.50;;;13.40;99.90;;;;;;5051538;28;20501;-63
2022/07/10 00:22:24;;;;;;;13.93;2.50;;;12.70;99.90;;;;;;5034102;28;20048;-63
2022/07/10 00:24:50;;;;;;;12.27;2.38;;;13.10;99.90;;;;;;5051342;28;20102;-63
2022/07/10 00:27:17;;;;;;;10.30;2.42;;;13.20;99.90;;;;;;5033405;28;20048;-63
2022/07/10 00:29:43;;;;;;;9.50;2.38;;;;;;;;;;5051088;28;20049;-63
2022/07/10 00:32:09;;;;;;;10.68;2.25;;;13.00;99.90;;;;;;5051391;28;20049;-63
2022/07/10 00:34:35;;;;;;;12.57;2.60;;;13.00;99.90;;;;;;5051028;28;20060;-63
2022/07/10 00:37:02;;;;;;;15.10;2.95;;;13.30;99.90;;;;;;5033421;28;20124;-63
2022/07/10 00:39:28;;;;;;;12.02;2.60;;;13.50;99.90;;;;;;5033338;28;20049;-63
2022/07/10 00:41:54;;;;;;;9.13;2.55;;;;;;;;;;5051568;28;20080;-63
2022/07/10 00:44:20;;;;;;;10.75;2.60;;;;;;;;;;5033392;28;20076;-63
2022/07/10 00:46:46;;;;;;;11.10;2.80;;;13.00;99.90;;;;;;5051163;28;20069;-63
2022/07/10 00:49:12;;;;;;;11.00;2.47;;;13.10;99.90;;;;;;5033312;28;20076;-63
2022/07/10 00:51:38;;;;;;;11.35;2.28;;;13.10;99.90;;;;;;5051039;28;20049;-63
2022/07/10 00:54:06;;;;;;;11.50;2.70;;;13.50;99.90;;;;;;5051247;28;20124;-63
2022/07/10 00:56:32;;;;;;;10.98;2.53;;;12.80;99.90;;;;;;5051268;28;20419;-63
2022/07/10 00:58:58;;;;;;;9.85;2.42;;;12.60;99.90;;;;;;5050999;28;20045;-63
2022/07/10 01:01:24;;;;;;;13.38;2.38;;;12.80;99.90;;;;;;5066459;23;20053;-83
2022/07/10 01:03:52;;;;;;;10.15;2.40;;;12.90;99.90;;;;;;5035657;28;20053;-83
2022/07/10 01:06:18;;;;;;;10.40;2.60;;;;;;;;;;5053305;28;20411;-83
2022/07/10 01:08:45;;;;;;;14.55;2.72;;;12.90;99.90;;;;;;5035974;28;20060;-83
2022/07/10 01:11:11;;;;;;;9.55;2.45;;;;;;;;;;5053365;28;20057;-83
2022/07/10 01:13:43;;;;;;;11.23;2.65;;;12.90;99.90;;;;;;5035409;28;20630;-83
2022/07/10 01:16:12;;;;;;;8.07;2.40;;;12.90;99.90;;;;;;5034911;28;20045;-83
2022/07/10 01:18:38;;;;;;;11.82;2.95;;;;;;;;;;5018724;28;20060;-83
2022/07/10 01:21:04;;;;;;;14.05;3.03;;;;;;;;;;5052203;28;20048;-83
2022/07/10 01:23:34;;;;;;;11.75;2.40;;;;;;;;;;5052881;28;20052;-83
2022/07/10 01:26:02;;;;;;;10.77;2.70;;;;;;;;;;5052878;28;20213;-83
2022/07/10 01:28:31;;;;;;;13.77;2.67;;;12.90;99.90;;;;;;5053019;28;20048;-83
2022/07/10 01:31:03;;;;;;;12.43;2.38;;;;;;;;;;5052887;28;20123;-83
2022/07/10 01:33:36;;;;;;;11.90;2.38;;;;;;;;;;5053061;28;20063;-83
2022/07/10 01:36:02;;;;;;;13.13;2.70;;;;;;;;;;5053046;28;20519;-83
2022/07/10 01:38:34;;;;;;;12.88;2.80;;;13.00;99.90;;;;;;5052823;28;20045;-83
2022/07/10 01:41:05;;;;;;;10.95;2.47;;;13.10;99.90;;;;;;5037549;28;20060;-82
2022/07/10 01:43:33;;;;;;;11.05;2.40;;;13.10;99.90;;;;;;5064019;28;20055;-83
2022/07/10 01:46:02;;;;;;;12.30;2.60;;;;;;;;;;5043271;28;20087;-83
2022/07/10 01:48:31;;;;;;;11.45;2.70;;;13.10;99.90;;;;;;5039466;28;20045;-82
2022/07/10 01:51:06;;;;;;;15.98;2.38;;;;;;;;;;5057631;28;20045;-82
2022/07/10 01:53:33;;;;;;;11.48;2.55;;;;;;;;;;5039546;28;20148;-84
2022/07/10 01:56:04;;;;;;;10.40;2.20;;;13.20;99.90;;;;;;5038928;28;20128;-84
2022/07/10 01:58:30;;;;;;;10.20;2.60;;;;;;;;;;5039474;28;20057;-84
2022/07/10 02:00:56;;;;;;;13.02;2.80;;;;;;;;;;5026285;28;20412;-84
2022/07/10 02:06:18;;;;;;;13.73;2.75;;;13.30;99.90;;;;;;5035669;28;20052;-84
2022/07/10 02:08:46;;;;;;;11.93;2.92;;;13.20;99.90;;;;;;5036980;28;20593;-84
2022/07/10 02:11:24;;;;;;;15.68;2.63;;;;;;;;;;5019024;28;20061;-83
2022/07/10 02:13:58;;;;;;;12.82;2.58;;;13.10;99.90;;;;;;5018462;28;20514;-84
2022/07/10 02:16:24;;;;;;;12.27;2.55;;;;;;;;;;5036549;28;20061;-84
2022/07/10 02:18:50;;;;;;;13.48;2.78;;;;;;;;;;5020099;28;20083;-84
2022/07/10 02:21:22;;;;;;;14.43;2.42;;;13.00;99.90;;;;;;5020645;28;20400;-83
2022/07/10 02:23:50;;;;;;;14.50;2.75;;;13.00;99.90;;;;;;5018351;28;20053;-83
2022/07/10 02:26:21;;;;;;;10.93;2.45;;;13.00;99.90;;;;;;5002494;28;20061;-83
2022/07/10 02:29:13;;;;;;;11.18;2.70;;;12.90;99.90;;;;;;5018924;28;20057;-84
2022/07/10 02:31:42;;;;;;;15.43;2.60;;;12.90;99.90;;;;;;5036108;28;20046;-83
2022/07/10 02:34:14;;;;;;;11.95;2.58;;;12.80;99.90;;;;;;5001963;28;20053;-83
2022/07/10 02:36:42;;;;;;;15.52;2.75;;;12.80;99.90;;;;;;5001625;28;20483;-84
2022/07/10 02:39:29;;;;;;;11.75;2.75;;;;;;;;;;5018062;28;20408;-83
2022/07/10 02:41:55;;;;;;;13.27;2.70;;;;;;;;;;5017872;28;20424;-83
2022/07/10 02:44:30;;;;;;;13.20;2.85;;;12.70;99.90;;;;;;5035645;28;20050;-84
2022/07/10 02:46:56;;;;;;;14.30;2.90;;;;;;;;;;5035596;28;20050;-83
2022/07/10 02:49:27;;;;;;;10.20;2.75;;;12.70;99.90;;;;;;5017950;28;20056;-84
2022/07/10 02:51:53;;;;;;;10.90;2.50;;;;;;;;;;5017327;28;20053;-84
2022/07/10 02:54:22;;;;;;;13.77;2.80;;;12.60;99.90;;;;;;5035516;28;20061;-84
2022/07/10 02:56:51;;;;;;;11.35;2.70;;;12.60;99.90;;;;;;5017521;28;20051;-83
2022/07/10 02:59:19;;;;;;;12.88;2.75;;;12.60;99.90;;;;;;5017529;28;20053;-84
2022/07/10 03:01:54;;;;;;;14.80;2.78;;;12.60;99.90;;;;;;5035340;28;20395;-84
2022/07/10 03:04:20;;;;;;;13.27;2.47;;;;;;;;;;5018823;28;20053;-84
2022/07/10 03:06:46;;;;;;;17.55;3.45;;;;;;;;;;5003102;28;20088;-84
2022/07/10 03:09:35;;;;;;;12.95;2.47;;;12.40;99.90;;;;;;5017978;28;20056;-84
2022/07/10 03:12:22;;;;;;;11.73;2.53;;;;;;;;;;5017398;28;20059;-84
2022/07/10 03:14:47;;;;;;;13.10;2.70;;;;;;;;;;5034517;28;20056;-84
2022/07/10 03:17:13;;;;;;;12.63;2.55;;;;;;;;;;5017644;28;20140;-84
2022/07/10 03:19:42;;;;;;;10.13;2.35;;;12.30;99.90;;;;;;5035008;28;20425;-84
2022/07/10 03:22:08;;;;;;;11.50;2.78;;;;;;;;;;5001001;28;20049;-83
2022/07/10 03:24:34;;;;;;;9.77;2.35;;;;;;;;;;5035119;28;20137;-83
2022/07/10 03:27:06;;;;;;;14.55;2.60;;;12.30;99.90;;;;;;5035119;28;20151;-84
2022/07/10 03:29:40;;;;;;;10.95;2.72;;;12.20;99.90;;;;;;5017942;28;20049;-84
2022/07/10 03:32:06;;;;;;;12.60;2.95;;;;;;;;;;5034733;28;20068;-84
2022/07/10 03:34:42;;;;;;;10.43;2.40;;;;;;;;;;5035043;28;20107;-84
2022/07/10 03:37:10;;;;;;;9.20;2.40;;;12.20;99.90;;;;;;5034779;28;20053;-84
2022/07/10 03:39:38;;;;;;;12.70;2.30;;;12.20;99.90;;;;;;5034858;28;20450;-84
2022/07/10 03:42:05;;;;;;;8.48;2.35;;;;;;;;;;5000870;28;20439;-83
2022/07/10 03:44:32;;;;;;;14.32;2.30;;;;;;;;;;5016765;28;20061;-84
2022/07/10 03:47:07;;;;;;;10.38;2.30;;;12.20;99.90;;;;;;5016676;28;20055;-84
2022/07/10 03:49:33;;;;;;;12.00;2.58;;;;;;;;;;5017326;28;20085;-84
2022/07/10 03:52:03;;;;;;;14.05;2.80;;;12.30;99.90;;;;;;5034496;28;20512;-84
2022/07/10 03:54:41;;;;;;;12.43;2.55;;;12.30;99.90;;;;;;5000548;28;20053;-83
2022/07/10 04:00:17;;;;;;;11.80;2.42;;;12.20;99.90;;;;;;5034547;28;20045;-84
2022/07/10 04:02:43;;;;;;;10.35;2.33;;;;;;;;;;5016225;28;20054;-84
2022/07/10 04:05:10;;;;;;;13.70;2.65;;;;;;;;;;5016248;28;20061;-84
2022/07/10 04:07:36;;;;;;;10.40;2.40;;;;;;;;;;5016296;28;20119;-84
2022/07/10 04:10:34;;;;;;;10.27;2.65;;;12.50;99.90;;;;;;5000359;28;20049;-84
2022/07/10 04:13:02;;;;;;;17.17;2.70;;;12.70;99.90;;;;;;5026629;28;20053;-84
2022/07/10 04:15:31;;;;;;;11.85;2.33;;;12.80;99.90;;;;;;5000567;28;20472;-84
2022/07/10 04:17:57;;;;;;;10.85;2.30;;;;;;;;;;5033750;28;20041;-84
2022/07/10 04:20:54;;;;;;;14.77;2.60;;;13.00;99.90;;;;;;5034173;28;20071;-84
2022/07/10 04:23:23;;;;;;;13.00;2.30;;;13.10;99.90;;;;;;5011119;28;20132;-84
2022/07/10 04:26:08;;;;;;;13.30;2.33;;;13.10;99.90;;;;;;4999701;28;20136;-83
2022/07/10 04:28:34;;;;;;;14.05;2.33;;;;;;;;;;5033357;28;20488;-84
2022/07/10 04:31:03;;;;;;;12.65;2.70;;;;;;;;;;5033756;28;20179;-84
2022/07/10 04:33:38;;;;;;;10.32;2.38;;;;;;;;;;5000253;28;20507;-84
2022/07/10 04:36:07;;;;;;;13.45;2.50;;;;;;;;;;5016310;28;20058;-82
2022/07/10 04:38:33;;;;;;;11.63;2.20;;;;;;;;;;5016154;28;20096;-82
2022/07/10 04:41:25;;;;;;;12.95;2.50;;;13.40;99.90;;;;;;5017023;28;20060;-83
2022/07/10 04:43:54;;;;;;;13.85;3.00;;;13.40;99.90;;;;;;4996244;28;20049;-83
2022/07/10 04:46:20;;;;;;;10.50;2.47;;;;;;;;;;5033817;28;20389;-83
2022/07/10 04:48:46;;;;;;;9.23;2.40;;;;;;;;;;5033714;28;20064;-83
2022/07/10 04:51:12;;;;;;;16.00;2.83;;;;;;;;;;5016466;28;20049;-82
2022/07/10 04:53:45;;;;;;;11.70;2.30;;;13.50;99.90;;;;;;5033648;28;20061;-82
2022/07/10 04:56:17;;;;;;;14.65;2.80;;;13.50;99.90;;;;;;5033616;28;20046;-83
2022/07/10 04:58:43;;;;;;;15.75;2.85;;;;;;;;;;5033984;28;20400;-82
2022/07/10 05:01:11;;;;;;;10.88;2.55;;;;;;;;;;5033092;28;20119;-83
2022/07/10 05:03:41;;;;;;;10.65;2.20;;;;;;;;;;5033753;28;20060;-83
2022/07/10 05:06:09;;;;;;;8.50;2.40;;;13.60;99.90;;;;;;5033362;28;20053;-84
2022/07/10 05:08:38;;;;;;;11.00;2.22;;;13.70;99.90;;;;;;5033828;28;20460;-84
2022/07/10 05:11:06;;;;;;;11.52;2.50;;;13.60;99.90;;;;;;5034317;28;20095;-84
2022/07/10 05:13:38;;;;;;;11.73;2.30;;;13.70;99.90;;;;;;5035670;28;20053;-84
2022/07/10 05:16:07;;;;;;;10.25;2.33;;;13.70;99.90;;;;;;5022867;28;20140;-83
2022/07/10 05:18:36;;;;;;;10.43;2.15;;;;;;;;;;5045789;28;20041;-84
2022/07/10 05:21:01;;;;;;;11.80;2.20;;;;;;;;;;5043388;28;20037;-83
2022/07/10 05:23:30;;;;;;;9.05;2.17;;;13.90;99.90;;;;;;5061969;28;20064;-83
2022/07/10 05:26:03;;;;;;;7.93;2.20;;;;;;;;;;5043887;28;20033;-84
2022/07/10 05:28:37;;;;;;;12.00;2.50;;;13.90;99.90;;;;;;5024477;28;20085;-84
2022/07/10 05:31:05;;;;;;;11.10;2.50;;;14.00;99.90;;;;;;5036127;28;20141;-84
2022/07/10 05:33:32;;;;;;;8.00;2.17;;;;;;;;;;5037505;28;20046;-84
2022/07/10 05:36:09;;;;;;;15.35;2.63;;;14.20;99.90;;;;;;5037464;28;20064;-84
2022/07/10 05:38:36;;;;;;;10.65;2.13;;;;;;;;;;5003277;28;20058;-84
2022/07/10 05:41:02;;;;;;;11.98;2.30;;;;;;;;;;5020394;28;20049;-84
2022/07/10 05:43:30;;;;;;;10.30;2.08;;;14.80;99.90;;;;;;5020187;28;20058;-85
2022/07/10 05:46:14;;;;;;;13.93;2.60;;;;;;;;;;5019721;28;20153;-84
2022/07/10 05:48:53;;;;;;;14.07;2.83;;;14.90;99.90;;;;;;5038379;28;20128;-84
2022/07/10 05:51:20;;;;;;;10.52;2.63;;;;;;;;;;5038833;28;20146;-84
2022/07/10 05:53:46;;;;;;;11.43;2.65;;;;;;;;;;5037174;28;20530;-84
2022/07/10 05:56:38;;;;;;;10.68;2.35;;;15.10;99.90;;;;;;5038546;28;20050;-84
2022/07/10 05:59:04;;;;;;;12.35;2.50;;;;;;;;;;5015501;28;20056;-84
2022/07/10 06:01:31;;;;;;;8.32;2.30;;;;;;;;;;5004702;28;20061;-84
2022/07/10 06:04:02;;;;;;;10.27;2.35;;;15.30;99.90;;;;;;5037922;28;20459;-84
2022/07/10 06:06:35;;;;;;;13.38;2.45;;;15.40;99.90;;;;;;5036813;28;20403;-83
2022/07/10 06:09:44;;;;;;;11.13;2.65;;;15.40;99.90;;;;;;5036824;28;20172;-83
2022/07/10 06:12:22;;;;;;;10.13;2.40;;;15.40;99.90;;;;;;4914226;29;20130;-84
2022/07/10 06:14:50;;;;;;;11.98;2.85;;;;;;;;;;5015473;28;20495;-84
2022/07/10 06:17:19;;;;;;;11.80;2.42;;;15.40;99.90;;;;;;5019654;28;20053;-84
2022/07/10 06:19:45;;;;;;;13.75;2.78;;;;;;;;;;5036871;28;20132;-84
2022/07/10 06:24:56;;;;;;;10.30;2.38;;;;;;;;;;5036667;28;20055;-84
2022/07/10 06:27:43;;;;;;;11.30;2.65;;;15.40;99.90;;;;;;5019026;28;20053;-83
2022/07/10 06:30:11;;;;;;;16.00;2.70;;;15.50;99.90;;;;;;5037948;28;20053;-84
2022/07/10 06:32:38;;;;;;;10.55;2.50;;;15.60;99.90;;;;;;5038749;28;20050;-84
2022/07/10 06:35:04;;;;;;;10.88;2.40;;;15.80;99.90;;;;;;5018950;28;20092;-84
2022/07/10 06:37:39;;;;;;;10.05;2.97;;;15.90;99.90;;;;;;5036194;28;20045;-85
2022/07/10 06:40:08;;;;;;;10.75;2.47;;;;;;;;;;5019808;28;20107;-83
2022/07/10 06:42:34;;;;;;;15.88;2.88;;;;;;;;;;5019129;28;20057;-84
2022/07/10 06:45:06;;;;;;;10.23;2.60;;;15.90;99.90;;;;;;5036753;28;20522;-83
2022/07/10 06:50:21;;;;;;;12.38;2.65;;;15.80;99.90;;;;;;5036432;28;20049;-84
2022/07/10 06:53:06;;;;;;;12.35;2.90;;;15.80;99.90;;;;;;5036666;28;20085;-84
2022/07/10 06:55:54;;;;;;;11.10;2.70;;;15.80;99.90;;;;;;5035800;28;20106;-84
2022/07/10 06:58:22;;;;;;;12.90;3.08;;;15.80;99.90;;;;;;5036702;28;20061;-84
2022/07/10 07:00:51;;;;;;;13.65;2.83;;;;;;;;;;5026135;28;20050;-84
2022/07/10 07:03:17;;;;;;;14.23;3.25;;;;;;;;;;5016427;28;20125;-84
2022/07/10 07:05:43;;;;;;;13.23;2.60;;;;;;;;;;5024115;28;20100;-84
2022/07/10 07:08:13;;;;;;;12.43;2.70;;;15.70;99.90;;;;;;5017315;28;20085;-84
2022/07/10 07:10:44;;;;;;;16.65;3.17;;;15.70;99.90;;;;;;5009632;28;20050;-84
2022/07/10 07:13:10;;;;;;;14.57;3.10;;;;;;;;;;5029511;28;20121;-84
2022/07/10 07:16:06;;;;;;;12.18;2.90;;;15.60;99.90;;;;;;5035645;28;20092;-84
2022/07/10 07:18:47;;;;;;;13.77;3.17;;;15.70;99.90;;;;;;5022723;28;20377;-83
2022/07/10 07:24:05;;;;;;;15.00;3.25;;;15.50;99.90;;;;;;5035591;28;20049;-84
2022/07/10 07:26:31;;;;;;;9.68;3.00;;;;;;;;;;5029783;28;20086;-84
2022/07/10 07:28:57;;;;;;;10.88;3.28;;;;;;;;;;5026593;28;20103;-83
2022/07/10 07:31:32;;;;;;;9.93;3.03;;;;;;;;;;5027259;28;20068;-83
2022/07/10 07:34:20;;;;;;;15.63;3.35;;;;;;;;;;5014381;28;20054;-83
2022/07/10 07:36:45;;;;;;;15.25;3.60;;;;;;;;;;4996105;28;20437;-83
2022/07/10 07:39:14;;;;;;;14.30;3.30;;;;;;;;;;5030681;28;20084;-83
2022/07/10 07:41:40;;;;;;;10.80;3.00;;;;;;;;;;5016250;28;20064;-83
2022/07/10 07:44:17;;;;;;;13.48;2.78;;;16.60;99.90;;;;;;5034865;28;20627;-83
2022/07/10 07:46:44;;;;;;;11.88;2.90;;;;;;;;;;5016455;28;20057;-84
2022/07/10 07:49:10;;;;;;;13.50;3.15;;;;;;;;;;5017599;28;20105;-84
2022/07/10 07:51:36;;;;;;;14.52;2.92;;;;;;;;;;5019145;28;20054;-84
2022/07/10 07:54:02;;;;;;;12.25;2.90;;;;;;;;;;5029244;28;20132;-83
2022/07/10 07:56:34;;;;;;;11.98;2.47;;;17.10;99.90;;;;;;5042478;28;20046;-83
2022/07/10 07:59:00;;;;;;;9.02;2.40;;;;;;;;;;5034787;28;20133;-84
2022/07/10 08:01:26;;;;;;;8.77;2.35;;;;;;;;;;5034263;28;20444;-84
2022/07/10 08:03:52;;;;;;;9.88;2.45;;;;;;;;;;5033908;28;20388;-84
2022/07/10 08:06:18;;;;;;;9.85;2.13;;;;;;;;;;5034693;28;20057;-84
2022/07/10 08:08:44;;;;;;;8.82;2.05;;;;;;;;;;5015996;28;20140;-84
2022/07/10 08:11:13;;;;;;;12.32;2.08;;;18.60;99.90;;;;;;5016393;28;20244;-84
2022/07/10 08:13:39;;;;;;;10.13;2.55;;;;;;;;;;4999737;28;20095;-84
2022/07/10 08:16:08;;;;;;;8.15;2.22;;;18.70;99.90;;;;;;4999449;28;20500;-84
2022/07/10 08:18:34;;;;;;;5.95;1.70;;;;;;;;;;5033496;28;20045;-84
2022/07/10 08:21:00;;;;;;;8.50;2.35;;;;;;;;;;5016024;28;20116;-85
2022/07/10 08:23:26;;;;;;;4.82;1.63;;;;;;;;;;4999423;28;20140;-85
2022/07/10 08:25:57;;;;;;;5.55;1.65;;;18.20;99.90;;;;;;5015755;28;20132;-84
2022/07/10 08:28:50;;;;;;;5.65;1.75;;;19.30;99.90;;;;;;4999617;28;20053;-84
2022/07/10 08:31:16;;;;;;;4.55;1.65;;;;;;;;;;5015942;28;20049;-84
2022/07/10 08:33:48;;;;;;;4.63;1.58;;;17.20;99.90;;;;;;5033265;28;20054;-84
2022/07/10 08:36:34;;;;;;;4.95;1.58;;;17.30;99.90;;;;;;5033408;28;20069;-84
2022/07/10 08:39:09;;;;;;;6.05;1.60;;;17.00;99.90;;;;;;5002161;28;20050;-84
2022/07/10 08:41:38;;;;;;;3.47;1.50;;;17.00;99.90;;;;;;4999455;28;20057;-84
2022/07/10 08:44:07;;;;;;;4.78;1.63;;;16.90;99.90;;;;;;5015566;28;20165;-84
2022/07/10 08:46:33;;;;;;;8.30;1.67;;;;;;;;;;5015614;28;20046;-83
2022/07/10 08:49:03;;;;;;;5.65;1.58;;;;;;;;;;4998391;28;20093;-84
2022/07/10 08:54:43;;;;;;;6.72;1.63;;;16.80;99.90;;;;;;5016086;28;20061;-81
2022/07/10 08:57:11;;;;;;;4.25;1.50;;;16.80;99.90;;;;;;5003545;28;20549;-83
2022/07/10 08:59:39;;;;;;;4.45;1.33;;;;;;;;;;5007412;28;20049;-84
2022/07/10 09:02:05;;;;;;;3.42;1.50;;;;;;;;;;5017669;28;20068;-83
2022/07/10 09:04:31;;;;;;;5.00;1.40;;;;;;;;;;5036828;28;20050;-81
2022/07/10 09:06:57;;;;;;;5.53;1.42;;;;;;;;;;5007981;28;20053;-81
2022/07/10 09:09:27;;;;;;;5.85;1.80;;;;;;;;;;5039500;28;20068;-81
2022/07/10 09:11:58;;;;;;;4.13;1.50;;;17.20;99.90;;;;;;5039658;28;20045;-84
2022/07/10 09:14:33;;;;;;;6.15;1.60;;;17.30;99.90;;;;;;5037587;28;20105;-82
2022/07/10 09:17:02;;;;;;;4.82;1.60;;;;;;;;;;5020076;28;20049;-81
2022/07/10 09:19:31;;;;;;;3.85;1.55;;;17.50;99.90;;;;;;5000684;28;20123;-84
2022/07/10 09:22:08;;;;;;;3.92;1.50;;;17.50;99.90;;;;;;4998903;28;20089;-83
2022/07/10 09:25:11;;;;;;;6.97;1.88;;;17.70;99.90;;;;;;5014812;28;20045;-83
2022/07/10 09:27:56;;;;;;;4.60;1.38;;;17.90;99.90;;;;;;5015330;28;20065;-83
2022/07/10 09:30:39;;;;;;;5.55;1.52;;;18.00;99.90;;;;;;4998936;28;20097;-82
2022/07/10 09:33:30;;;;;;;6.40;1.88;;;18.00;99.90;;;;;;5016136;28;20057;-84
2022/07/10 09:36:11;;;;;;;3.72;1.40;;;;;;;;;;5014843;28;20050;-83
2022/07/10 09:38:40;;;;;;;9.75;2.05;;;;;;;;;;5032690;28;20088;-83
2022/07/10 09:41:16;;;;;;;5.50;1.63;;;18.00;99.90;;;;;;4998051;28;20058;-83
2022/07/10 09:47:21;;;;;;;3.72;1.42;;;17.80;99.90;;;;;;4982434;28;20054;-84
2022/07/10 09:49:49;;;;;;;5.10;1.38;;;;;;;;;;4979163;28;20159;-83
2022/07/10 09:52:27;;;;;;;3.08;1.20;;;17.70;99.90;;;;;;4995521;28;20151;-83
2022/07/10 09:55:05;;;;;;;3.33;1.38;;;17.60;99.90;;;;;;5013998;28;20074;-84
2022/07/10 09:57:35;;;;;;;7.05;1.80;;;;;;;;;;5014205;28;20081;-83
2022/07/10 10:00:01;;;;;;;5.18;1.63;;;;;;;;;;4995628;28;20058;-83
2022/07/10 10:02:50;;;;;;;4.28;1.50;;;17.40;99.90;;;;;;4998471;28;20054;-83
2022/07/10 10:05:32;;;;;;;4.65;1.52;;;17.30;99.90;;;;;;4954889;28;20058;-83
2022/07/10 10:08:09;;;;;;;2.72;1.27;;;17.30;99.90;;;;;;4982992;28;20128;-84
2022/07/10 10:10:50;;;;;;;;;;;;;;;;;;;;;
2022/07/10 10:13:30;;;;;;;4.50;1.60;;;17.40;99.90;;;;;;5014565;28;20054;-83
2022/07/10 10:16:05;;;;;;;5.30;1.45;;;17.50;99.90;;;;;;5000229;28;20041;-82
2022/07/10 10:20:36;;;;;;;4.55;1.40;;;;;;;;;;5018580;28;20085;-83
2022/07/10 10:21:20;;;;;;;3.35;1.27;;;;;;;;;;5016535;28;20053;-83
2022/07/10 10:23:58;;;;;;;2.80;1.00;;;17.90;99.90;;;;;;5003007;28;20053;-83
2022/07/10 10:26:26;;;;;;;2.55;1.05;;;17.40;99.90;;;;;;5002082;28;20069;-83
2022/07/10 10:29:06;;;;;;;4.28;1.25;;;17.40;99.90;;;;;;5019329;28;20057;-84
2022/07/10 10:31:47;;;;;;;2.65;1.30;;;17.80;99.90;;;;;;5035493;28;20415;-85
2022/07/10 10:34:42;;;;;;;3.67;1.40;;;17.50;99.90;;;;;;5036749;28;20196;-84
2022/07/10 10:37:27;;;;;;;2.70;1.30;;;17.60;99.90;;;;;;5017861;28;20050;-84
2022/07/10 10:39:57;;;;;;;2.58;1.10;;;17.70;99.90;;;;;;5018605;28;20187;-84
2022/07/10 10:42:55;;;;;;;2.13;1.05;;;17.40;99.90;;;;;;5030243;28;20058;-83
2022/07/10 10:45:52;;;;;;;2.72;1.48;;;17.70;99.90;;;;;;4980133;28;20374;-83
2022/07/10 10:48:26;;;;;;;2.97;1.23;;;17.90;99.90;;;;;;5015369;28;20072;-83
2022/07/10 10:50:58;;;;;;;3.28;1.15;;;18.50;99.90;;;;;;4997903;28;20053;-83
2022/07/10 10:53:31;;;;;;;3.10;1.48;;;17.60;99.90;;;;;;4981215;28;20088;-83
2022/07/10 10:56:00;;;;;;;2.05;1.23;;;;;;;;;;4998318;28;20108;-83
2022/07/10 10:58:45;;;;;;;4.22;1.30;;;17.60;99.90;;;;;;4981875;28;20133;-83
2022/07/10 11:01:25;;;;;;;3.90;1.58;;;18.20;99.90;;;;;;4981405;28;20544;-83
2022/07/10 11:04:10;;;;;;;2.67;1.33;;;17.70;99.90;;;;;;4997367;28;20141;-83
2022/07/10 11:06:55;;;;;;;2.85;1.40;;;17.80;99.90;;;;;;4984524;28;20050;-83
2022/07/10 11:09:34;;;;;;;5.25;1.67;;;17.90;99.90;;;;;;4997280;28;20060;-83
2022/07/10 11:12:12;;;;;;;4.07;1.73;;;17.70;99.90;;;;;;5017686;28;20073;-84
2022/07/10 11:15:08;;;;;;;4.68;1.52;;;17.90;99.90;;;;;;5001125;28;20062;-83
2022/07/10 11:17:34;;;;;;;2.97;1.40;;;;;;;;;;4954497;29;20427;-84
2022/07/10 11:20:06;;;;;;;3.70;1.58;;;18.10;99.90;;;;;;4923495;29;20051;-84
2022/07/10 11:22:58;;;;;;;3.83;1.50;;;18.30;99.90;;;;;;4954292;29;20058;-83
2022/07/10 11:26:07;;;;;;;2.83;1.50;;;18.60;99.90;;;;;;4915327;29;20054;-83
2022/07/10 11:28:51;;;;;;;4.45;1.50;;;18.90;99.90;;;;;;4890014;29;20058;-83
2022/07/10 11:32:04;;;;;;;4.53;1.50;;;19.10;99.90;;;;;;4903214;29;20515;-84
2022/07/10 11:34:50;;;;;;;4.03;1.75;;;19.30;99.90;;;;;;4927638;29;20048;-83
2022/07/10 11:37:23;;;;;;;5.82;1.70;;;19.50;99.90;;;;;;4938625;29;20573;-83
2022/07/10 11:40:12;;;;;;;2.95;1.50;;;19.70;99.90;;;;;;4953415;29;20059;-83
2022/07/10 11:42:57;;;;;;;7.57;1.90;;;22.10;99.90;;;;;;4937928;29;20051;-84
2022/07/10 11:45:41;;;;;;;4.53;1.88;;;20.30;99.90;;;;;;4954749;29;20053;-83
2022/07/10 11:48:13;;;;;;;5.40;1.73;;;;;;;;;;4936205;29;20134;-83
2022/07/10 11:50:54;;;;;;;6.07;1.75;;;19.60;99.90;;;;;;4939099;29;20130;-83
2022/07/10 11:53:29;;;;;;;3.60;1.75;;;19.80;99.90;;;;;;4942286;28;20047;-83
2022/07/10 11:55:56;;;;;;;7.40;2.17;;;;;;;;;;5016798;28;20052;-83
2022/07/10 11:58:22;;;;;;;5.15;1.90;;;;;;;;;;5017076;28;20088;-83
2022/07/10 12:01:06;;;;;;;5.43;2.35;;;19.70;99.90;;;;;;5034054;28;20045;-82
2022/07/10 12:03:56;;;;;;;5.70;2.00;;;19.80;99.90;;;;;;5016837;28;20049;-83
2022/07/10 12:06:57;;;;;;;7.35;1.95;;;20.00;99.90;;;;;;5002339;28;20081;-83
2022/07/10 12:09:26;;;;;;;6.43;1.90;;;21.80;99.90;;;;;;5034796;28;20049;-83
2022/07/10 12:11:58;;;;;;;5.32;2.00;;;19.80;99.90;;;;;;4999820;28;20077;-83
2022/07/10 12:14:30;;;;;;;4.38;1.83;;;20.10;99.90;;;;;;5000542;28;20229;-83
2022/07/10 12:17:25;;;;;;;5.47;1.90;;;20.20;99.90;;;;;;5034152;28;20504;-83
2022/07/10 12:19:56;;;;;;;4.20;1.80;;;;;;;;;;5015154;28;20124;-83
2022/07/10 12:22:23;;;;;;;4.97;1.83;;;;;;;;;;5015947;28;20049;-83
2022/07/10 12:24:57;;;;;;;6.43;1.92;;;20.00;99.90;;;;;;5032785;28;20076;-83
2022/07/10 12:27:44;;;;;;;4.40;1.80;;;19.80;99.90;;;;;;5016155;28;20053;-83
2022/07/10 12:30:10;;;;;;;4.95;1.80;;;;;;;;;;5016050;28;20397;-83
2022/07/10 12:32:44;;;;;;;6.07;1.90;;;19.50;99.90;;;;;;5015899;28;20041;-83
2022/07/10 12:35:14;;;;;;;7.43;1.95;;;;;;;;;;5015231;28;20115;-83
2022/07/10 12:37:50;;;;;;;6.05;2.33;;;18.80;99.90;;;;;;5032315;28;20054;-83
2022/07/10 12:41:10;;;;;;;7.57;2.13;;;18.70;99.90;;;;;;5000098;28;20499;-83
2022/07/10 12:43:42;;;;;;;5.90;2.00;;;18.20;99.90;;;;;;4937893;29;20055;-83
2022/07/10 12:46:21;;;;;;;5.47;2.17;;;18.60;99.90;;;;;;4938226;29;20047;-83
2022/07/10 12:49:12;;;;;;;6.38;2.15;;;18.40;99.90;;;;;;4955189;29;20047;-83
2022/07/10 12:52:24;;;;;;;8.35;2.33;;;18.80;99.90;;;;;;4940933;29;20131;-83
2022/07/10 12:55:13;;;;;;;5.65;1.92;;;19.20;99.90;;;;;;4981027;28;20110;-83
2022/07/10 12:58:09;;;;;;;7.05;2.10;;;19.30;99.90;;;;;;4978484;28;20079;-82
2022/07/10 13:00:50;;;;;;;7.00;2.00;;;19.20;99.90;;;;;;4978255;28;20067;-83
2022/07/10 13:03:23;;;;;;;8.05;2.38;;;19.00;99.90;;;;;;4935712;29;20191;-83
2022/07/10 13:06:05;;;;;;;10.20;2.38;;;18.80;99.90;;;;;;4940354;29;20043;-82
2022/07/10 13:08:47;;;;;;;8.45;2.25;;;18.60;99.90;;;;;;4953940;29;20055;-83
2022/07/10 13:11:15;;;;;;;8.75;2.38;;;18.50;99.90;;;;;;4949309;28;20118;-83
2022/07/10 13:13:41;;;;;;;9.25;2.42;;;;;;;;;;4960031;28;20144;-83
2022/07/10 13:16:15;;;;;;;7.75;2.60;;;18.30;99.90;;;;;;4976199;28;20061;-83
2022/07/10 13:18:46;;;;;;;6.35;2.30;;;18.70;99.90;;;;;;4976598;28;20398;-83
2022/07/10 13:21:15;;;;;;;8.30;2.42;;;;;;;;;;4976244;28;20161;-83
2022/07/10 13:23:44;;;;;;;7.78;2.08;;;;;;;;;;4975988;28;20162;-84
2022/07/10 13:26:10;;;;;;;8.65;2.30;;;;;;;;;;4960044;28;20066;-84
2022/07/10 13:28:39;;;;;;;5.40;1.90;;;18.20;99.90;;;;;;4976097;28;20168;-83
2022/07/10 13:31:12;;;;;;;9.50;2.40;;;18.10;99.90;;;;;;4991816;28;20497;-83
2022/07/10 13:33:46;;;;;;;7.20;2.20;;;18.20;99.90;;;;;;4979943;28;20425;-83
2022/07/10 13:36:18;;;;;;;5.65;1.85;;;18.20;99.90;;;;;;5016684;28;20054;-82
2022/07/10 13:38:54;;;;;;;7.50;2.28;;;18.20;99.90;;;;;;5019908;28;20057;-83
2022/07/10 13:41:30;;;;;;;6.38;2.08;;;;;;;;;;5021094;28;20053;-83
2022/07/10 13:44:01;;;;;;;7.35;2.30;;;18.40;99.90;;;;;;5019568;28;20053;-84
2022/07/10 13:46:45;;;;;;;6.03;1.90;;;;;;;;;;5020246;28;20422;-83
2022/07/10 13:49:21;;;;;;;7.03;2.17;;;;;;;;;;5037658;28;20056;-83
2022/07/10 13:51:50;;;;;;;7.30;2.28;;;19.50;99.90;;;;;;5018911;28;20049;-83
2022/07/10 13:54:22;;;;;;;8.95;2.28;;;19.90;99.90;;;;;;5019613;28;20057;-83
2022/07/10 13:56:53;;;;;;;6.75;2.17;;;19.90;99.90;;;;;;5019422;28;20133;-83
2022/07/10 13:59:22;;;;;;;5.80;2.28;;;;;;;;;;5018954;28;20128;-83
2022/07/10 14:01:51;;;;;;;8.50;2.40;;;19.80;99.90;;;;;;5018437;28;20071;-83
2022/07/10 14:04:26;;;;;;;8.18;2.20;;;;;;;;;;5020409;28;20104;-83
2022/07/10 14:07:18;;;;;;;10.82;2.20;;;19.70;99.90;;;;;;5035783;28;20048;-83
2022/07/10 14:09:59;;;;;;;6.28;2.20;;;19.40;99.90;;;;;;5002790;28;20573;-82
2022/07/10 14:12:55;;;;;;;7.45;2.10;;;19.10;99.90;;;;;;5037042;28;20061;-82
2022/07/10 14:15:44;;;;;;;;;;;;;;;;;;;;;
2022/07/10 14:18:44;;;;;;;8.48;2.10;;;20.30;99.90;;;;;;5036368;28;20317;-83